world map with KSTF marked

KSTF - Airport

This information may not be accurate or current and is not valid for navigation or flight planning. No warranty of fitness for any purpose is made or implied.

flag of Mississippiflag of United States

Donate via PayPal

Additional information is available on the NEW Great Circle Mapper

Location
City:  Starkville, Mississippi, United States
Name:George M Bryan Airport
ICAO:KSTF
FAA:STF

Details
Type:Airport (Airfield)
Use:Public/Civil
Latitude:33°25'59"N (33.433111)
Longitude:88°50'55"W (-88.848610)
Datum:WGS 1984
Elevation:333 ft (101 m)
Runways:1
Longest:5550 × 150 ft (1692 × 45.5 m)

Time
Timezone:UTC+28:08 (DST+29:08)
Local Time:

Weather
METAR:KSTF  260635Z AUTO 00000KT 1/4SM FG VV002 13/12 A3004 RMK AO2

Related Locations
Nearby:
Farthest:MGV: 11067 mi / 17811 km
Margaret River, WA, AU

Find:

   beyond  
but within

Other Information
Maps:
Links:
Sources:

  

Sectional Chart

Flight Planning
at skyvector.com

 


Great Circle Mapper   Great Circle Mapper
Great Circle Mapper FAQ   Great Circle Mapper FAQ
  Karl's Home Page
KLSē   KLSē Home
   GC on Facebook
Airlines of the World   Airlines of the World
Donate via PayPal


Copyright © 2004-2014, Karl L. Swartz. All rights reserved.
All trademarks mentioned herein belong to their respective owners.

Please see credits for attribution and copyright information.

Karl Swartz <karl@kls2.com>
  Powered by FreeBSD
Valid HTML 4.01!
Labeled with ICRA
hCard Microformat
Geo Microformat